Time;durP1;ratioP1;P1;durP2;ratioP2;P2;SDS_P1;SDS_P2;PMS_P1;PMS_P2;Temp;Humidity;BMP_temperature;BMP_pressure;BME280_temperature;BME280_humidity;BME280_pressure;Samples;Min_cycle;Max_cycle;Signal;HPM_P1;HPM_P2
2023/06/30 00:01:29;;;;;;;1.48;0.93;;;19.80;46.50;;;;;;5054387;28;20046;-89
2023/06/30 00:03:56;;;;;;;1.45;0.98;;;19.70;46.50;;;;;;5042590;28;20580;-90
2023/06/30 00:06:25;;;;;;;2.00;1.20;;;19.70;46.60;;;;;;5025460;28;20372;-88
2023/06/30 00:08:52;;;;;;;1.85;1.17;;;19.60;46.50;;;;;;5044632;28;20534;-88
2023/06/30 00:11:23;;;;;;;1.70;0.93;;;19.60;46.60;;;;;;5052123;28;20127;-89
2023/06/30 00:13:52;;;;;;;4.05;1.60;;;19.60;46.80;;;;;;5043577;28;20437;-91
2023/06/30 00:16:18;;;;;;;3.15;1.00;;;19.50;46.70;;;;;;5043643;28;20039;-89
2023/06/30 00:18:46;;;;;;;2.75;1.33;;;19.40;46.60;;;;;;5029415;28;20033;-88
2023/06/30 00:21:12;;;;;;;1.92;1.20;;;19.40;46.80;;;;;;5031026;28;20055;-88
2023/06/30 00:23:38;;;;;;;1.63;0.77;;;19.40;46.90;;;;;;5041274;28;20037;-89
2023/06/30 00:26:07;;;;;;;2.60;1.40;;;19.30;46.80;;;;;;5050898;28;20044;-88
2023/06/30 00:28:33;;;;;;;1.52;1.00;;;19.30;47.50;;;;;;5043018;28;20051;-88
2023/06/30 00:31:01;;;;;;;4.28;1.50;;;19.20;46.90;;;;;;5031303;28;20063;-88
2023/06/30 00:33:30;;;;;;;2.67;1.55;;;19.20;47.00;;;;;;5052594;28;20401;-88
2023/06/30 00:35:56;;;;;;;1.88;1.30;;;19.10;46.90;;;;;;5036753;28;20067;-88
2023/06/30 00:38:23;;;;;;;1.60;1.00;;;19.10;47.10;;;;;;5024575;28;20037;-88
2023/06/30 00:40:49;;;;;;;3.65;1.23;;;19.00;47.00;;;;;;5049566;28;20439;-88
2023/06/30 00:43:15;;;;;;;2.22;1.23;;;19.00;47.10;;;;;;5041384;28;20098;-89
2023/06/30 00:45:41;;;;;;;2.78;1.20;;;18.90;47.00;;;;;;5030197;28;20037;-89
2023/06/30 00:48:07;;;;;;;1.85;1.23;;;18.90;47.20;;;;;;5027213;28;20028;-89
2023/06/30 00:50:34;;;;;;;2.28;1.30;;;18.80;47.10;;;;;;5038004;28;20081;-89
2023/06/30 00:53:04;;;;;;;3.13;1.30;;;18.80;47.20;;;;;;5039777;28;20111;-88
2023/06/30 00:55:31;;;;;;;4.30;1.27;;;18.80;47.40;;;;;;5039709;28;20040;-89
2023/06/30 00:57:57;;;;;;;3.08;1.45;;;18.70;47.30;;;;;;5050289;28;20085;-89
2023/06/30 01:00:24;;;;;;;3.22;1.85;;;18.60;47.20;;;;;;5031484;28;20090;-90
2023/06/30 01:03:19;;;;;;;1.92;1.13;;;18.60;47.30;;;;;;5044038;28;20098;-89
2023/06/30 01:05:52;;;;;;;1.38;1.10;;;18.50;47.40;;;;;;5048403;28;20067;-89
2023/06/30 01:08:36;;;;;;;2.65;1.30;;;18.50;47.30;;;;;;5032218;28;20094;-89
2023/06/30 01:11:04;;;;;;;2.53;1.42;;;18.40;47.40;;;;;;5051741;28;20512;-88
2023/06/30 01:13:32;;;;;;;1.80;0.90;;;18.40;47.40;;;;;;5041024;28;20031;-88
2023/06/30 01:15:58;;;;;;;2.58;1.13;;;18.40;47.60;;;;;;5042695;28;20062;-89
2023/06/30 01:18:26;;;;;;;1.63;1.23;;;18.40;47.70;;;;;;5043692;28;20033;-88
2023/06/30 01:20:53;;;;;;;1.88;1.15;;;18.30;47.60;;;;;;5042348;28;20515;-89
2023/06/30 01:23:35;;;;;;;2.00;1.17;;;18.30;47.70;;;;;;5035672;28;20060;-88
2023/06/30 01:26:06;;;;;;;2.25;1.30;;;18.30;47.90;;;;;;5055902;28;20029;-88
2023/06/30 01:28:36;;;;;;;3.53;1.48;;;18.20;47.70;;;;;;5051031;28;20043;-88
2023/06/30 01:31:08;;;;;;;3.10;1.65;;;18.20;47.80;;;;;;5038787;28;20119;-89
2023/06/30 01:33:38;;;;;;;2.92;1.98;;;18.20;47.90;;;;;;5048741;28;20110;-89
2023/06/30 01:36:06;;;;;;;1.83;1.23;;;18.20;48.60;;;;;;5042514;28;20123;-89
2023/06/30 01:38:33;;;;;;;3.15;2.33;;;18.20;48.00;;;;;;5047101;28;20465;-89
2023/06/30 01:41:04;;;;;;;4.55;1.67;;;18.10;47.90;;;;;;5047218;28;20032;-89
2023/06/30 01:43:31;;;;;;;3.10;1.60;;;18.10;47.90;;;;;;5046903;28;20044;-88
2023/06/30 01:45:58;;;;;;;3.03;1.45;;;18.20;48.30;;;;;;5048824;28;20562;-88
2023/06/30 01:48:25;;;;;;;4.22;1.67;;;18.10;48.10;;;;;;5063476;28;20033;-89
2023/06/30 01:50:53;;;;;;;2.00;1.80;;;18.10;48.20;;;;;;5044959;28;20059;-88
2023/06/30 01:53:22;;;;;;;3.13;1.33;;;18.10;48.30;;;;;;5048355;28;20524;-88
2023/06/30 01:55:48;;;;;;;2.83;1.30;;;18.10;48.30;;;;;;5050622;28;20123;-89
2023/06/30 01:58:17;;;;;;;3.13;1.40;;;18.10;48.30;;;;;;5051871;28;20047;-89
2023/06/30 02:00:43;;;;;;;2.55;1.55;;;18.10;48.40;;;;;;5037562;28;20396;-88
2023/06/30 02:03:09;;;;;;;2.17;1.80;;;18.10;48.50;;;;;;5059971;28;20506;-88
2023/06/30 02:05:35;;;;;;;3.10;1.20;;;18.10;48.50;;;;;;5054858;28;20470;-88
2023/06/30 02:08:02;;;;;;;3.70;1.80;;;18.00;48.40;;;;;;5059748;28;20075;-88
2023/06/30 02:10:29;;;;;;;2.05;1.40;;;18.00;48.50;;;;;;5030715;28;20041;-88
2023/06/30 02:12:55;;;;;;;2.05;1.30;;;18.00;48.60;;;;;;5037785;28;20044;-88
2023/06/30 02:15:24;;;;;;;2.55;1.30;;;18.00;48.70;;;;;;5039239;28;20028;-88
2023/06/30 02:17:57;;;;;;;2.35;1.42;;;18.00;48.70;;;;;;5043358;28;20388;-88
2023/06/30 02:20:24;;;;;;;3.53;1.75;;;18.00;48.80;;;;;;5035923;28;20101;-88
2023/06/30 02:22:51;;;;;;;2.30;1.27;;;18.00;48.90;;;;;;5053801;28;20055;-89
2023/06/30 02:25:20;;;;;;;2.08;1.33;;;18.00;49.00;;;;;;5049823;28;20033;-87
2023/06/30 02:27:46;;;;;;;3.22;1.77;;;18.00;49.10;;;;;;5040855;28;20041;-89
2023/06/30 02:30:18;;;;;;;2.55;1.50;;;18.00;49.10;;;;;;5053756;28;20028;-87
2023/06/30 02:32:45;;;;;;;3.38;1.48;;;18.00;49.20;;;;;;5055438;28;20511;-88
2023/06/30 02:35:13;;;;;;;1.42;1.23;;;18.00;49.20;;;;;;5036816;28;20115;-88
2023/06/30 02:37:39;;;;;;;3.50;1.95;;;18.00;49.30;;;;;;5049129;28;20037;-88
2023/06/30 02:40:08;;;;;;;1.80;1.33;;;18.00;49.40;;;;;;5051043;28;20044;-87
2023/06/30 02:42:34;;;;;;;1.60;1.30;;;18.00;49.40;;;;;;5039588;28;20037;-89
2023/06/30 02:45:01;;;;;;;3.28;1.70;;;18.00;49.50;;;;;;5049307;28;20021;-88
2023/06/30 02:47:27;;;;;;;3.15;1.73;;;18.00;49.50;;;;;;5042092;28;20093;-88
2023/06/30 02:49:54;;;;;;;1.80;1.30;;;18.00;49.60;;;;;;5038874;28;20086;-89
2023/06/30 02:52:21;;;;;;;1.13;1.02;;;18.00;49.70;;;;;;5033605;28;20067;-89
2023/06/30 02:54:48;;;;;;;2.22;1.38;;;18.00;49.70;;;;;;5050458;28;20098;-89
2023/06/30 02:57:15;;;;;;;1.75;1.30;;;18.00;49.80;;;;;;5051067;28;20033;-89
2023/06/30 02:59:42;;;;;;;2.53;1.95;;;18.00;49.90;;;;;;5045803;28;20041;-89
2023/06/30 03:02:09;;;;;;;2.83;1.27;;;18.00;49.90;;;;;;5053775;28;20040;-89
2023/06/30 03:04:42;;;;;;;3.78;1.67;;;18.00;50.00;;;;;;5022721;28;20078;-88
2023/06/30 03:07:09;;;;;;;1.42;1.10;;;18.00;50.10;;;;;;5046752;28;20060;-88
2023/06/30 03:09:37;;;;;;;2.28;1.40;;;18.00;50.20;;;;;;5047017;28;20291;-87
2023/06/30 03:12:05;;;;;;;2.28;1.45;;;18.00;50.20;;;;;;5046233;28;20124;-88
2023/06/30 03:14:31;;;;;;;13.23;2.08;;;18.00;50.30;;;;;;5043208;28;20075;-88
2023/06/30 03:16:58;;;;;;;2.35;1.38;;;18.00;50.40;;;;;;5053444;28;20487;-88
2023/06/30 03:19:25;;;;;;;3.17;1.50;;;18.00;50.50;;;;;;5036187;28;20067;-88
2023/06/30 03:21:53;;;;;;;1.67;1.20;;;17.90;50.40;;;;;;5039479;28;20043;-88
2023/06/30 03:24:20;;;;;;;3.00;1.60;;;17.90;50.50;;;;;;5040290;28;20441;-88
2023/06/30 03:26:49;;;;;;;2.15;1.25;;;17.90;50.60;;;;;;5047334;28;20029;-87
2023/06/30 03:29:24;;;;;;;1.85;1.20;;;17.90;50.60;;;;;;5039439;28;20041;-87
2023/06/30 03:31:54;;;;;;;1.80;1.13;;;17.90;50.70;;;;;;5016840;28;20038;-87
2023/06/30 03:34:20;;;;;;;4.60;1.40;;;17.90;50.80;;;;;;5039925;28;20032;-87
2023/06/30 03:36:47;;;;;;;3.50;1.35;;;17.90;50.90;;;;;;5037570;28;20035;-87
2023/06/30 03:39:14;;;;;;;2.88;1.33;;;17.90;51.00;;;;;;5030937;28;20017;-87
2023/06/30 03:41:41;;;;;;;3.35;1.60;;;17.80;50.90;;;;;;5045190;28;20036;-86
2023/06/30 03:44:11;;;;;;;3.65;1.70;;;17.80;51.00;;;;;;5039516;28;20064;-87
2023/06/30 03:46:37;;;;;;;2.35;1.40;;;17.80;51.10;;;;;;5048402;28;20028;-87
2023/06/30 03:49:06;;;;;;;2.35;1.08;;;17.80;51.20;;;;;;5039379;28;20435;-86
2023/06/30 03:51:33;;;;;;;4.10;1.50;;;17.80;51.20;;;;;;5041396;28;20480;-88
2023/06/30 03:54:02;;;;;;;4.80;1.38;;;17.80;51.40;;;;;;5042591;28;20326;-88
2023/06/30 03:56:28;;;;;;;1.83;1.35;;;17.80;51.40;;;;;;5033105;28;20037;-90
2023/06/30 03:58:56;;;;;;;2.88;1.00;;;17.80;51.40;;;;;;5041583;28;20036;-87
2023/06/30 04:01:22;;;;;;;2.72;1.38;;;17.80;51.50;;;;;;5049765;28;20048;-88
2023/06/30 04:03:51;;;;;;;2.83;1.77;;;17.80;52.10;;;;;;5010551;28;20025;-90
2023/06/30 04:06:17;;;;;;;2.35;1.42;;;17.80;51.60;;;;;;5053961;28;20020;-89
2023/06/30 04:08:44;;;;;;;4.28;1.38;;;17.80;51.70;;;;;;5028576;28;20296;-90
2023/06/30 04:11:11;;;;;;;3.60;1.77;;;17.80;51.70;;;;;;5050266;28;20061;-91
2023/06/30 04:13:36;;;;;;;3.15;1.30;;;17.80;51.80;;;;;;5053127;28;20119;-91
2023/06/30 04:16:03;;;;;;;1.77;1.35;;;17.80;51.90;;;;;;5067508;28;20552;-90
2023/06/30 04:18:29;;;;;;;2.83;1.48;;;17.80;51.90;;;;;;5018295;28;20434;-91
2023/06/30 04:20:55;;;;;;;4.07;2.00;;;17.80;52.00;;;;;;5057144;28;20407;-90
2023/06/30 04:23:21;;;;;;;1.63;0.90;;;17.80;52.30;;;;;;5048189;28;20040;-90
2023/06/30 04:25:47;;;;;;;2.35;1.17;;;17.80;52.10;;;;;;5048171;28;20028;-88
2023/06/30 04:28:13;;;;;;;1.42;0.90;;;17.80;52.10;;;;;;5054612;28;20035;-90
2023/06/30 04:30:39;;;;;;;3.63;1.45;;;17.90;52.30;;;;;;5045578;28;20032;-90
2023/06/30 04:33:04;;;;;;;4.00;1.30;;;17.80;52.20;;;;;;5058141;28;20404;-89
2023/06/30 04:35:30;;;;;;;2.70;1.05;;;17.90;52.40;;;;;;5045829;28;20033;-90
2023/06/30 04:37:57;;;;;;;3.47;1.17;;;17.90;52.40;;;;;;5051733;28;20369;-90
2023/06/30 04:40:23;;;;;;;3.85;1.58;;;17.90;52.40;;;;;;5032890;28;20120;-89
2023/06/30 04:42:49;;;;;;;1.77;1.30;;;17.90;52.50;;;;;;5045975;28;20131;-89
2023/06/30 04:45:14;;;;;;;2.20;1.30;;;17.90;52.50;;;;;;5046562;28;20103;-90
2023/06/30 04:47:41;;;;;;;3.53;1.63;;;17.90;52.50;;;;;;5029839;28;20097;-90
2023/06/30 04:50:07;;;;;;;4.68;1.10;;;17.90;52.50;;;;;;5049243;28;20056;-90
2023/06/30 04:52:33;;;;;;;2.20;1.58;;;17.90;52.60;;;;;;5042020;28;20508;-90
2023/06/30 04:55:03;;;;;;;2.08;0.82;;;17.90;52.60;;;;;;5031671;28;20434;-89
2023/06/30 04:57:29;;;;;;;1.98;0.75;;;17.90;52.60;;;;;;5046547;28;20029;-91
2023/06/30 04:59:56;;;;;;;2.47;1.65;;;17.90;52.60;;;;;;5058909;28;20082;-90
2023/06/30 05:02:23;;;;;;;2.25;1.10;;;18.00;52.80;;;;;;5044917;28;20066;-90
2023/06/30 05:04:49;;;;;;;1.85;1.40;;;18.00;52.80;;;;;;5051621;28;20067;-89
2023/06/30 05:07:15;;;;;;;2.38;1.05;;;18.00;52.70;;;;;;5056998;28;20024;-90
2023/06/30 05:09:41;;;;;;;1.88;1.00;;;18.10;52.90;;;;;;5040297;28;20031;-91
2023/06/30 05:12:11;;;;;;;2.38;1.00;;;18.10;52.90;;;;;;5048828;28;20029;-91
2023/06/30 05:14:37;;;;;;;2.33;0.90;;;18.10;52.80;;;;;;5053101;28;20068;-91
2023/06/30 05:17:03;;;;;;;4.57;1.42;;;18.10;52.80;;;;;;5027608;28;20064;-90
2023/06/30 05:19:30;;;;;;;1.80;1.38;;;18.10;52.80;;;;;;5052106;28;20036;-89
2023/06/30 05:21:56;;;;;;;2.25;1.02;;;18.20;52.90;;;;;;5046847;28;20096;-90
2023/06/30 05:24:22;;;;;;;3.03;1.02;;;18.20;52.90;;;;;;5047056;28;20032;-90
2023/06/30 05:26:49;;;;;;;2.28;1.10;;;18.20;52.80;;;;;;5051275;28;20098;-89
2023/06/30 05:29:15;;;;;;;2.13;1.00;;;18.30;53.00;;;;;;5038634;28;20025;-88
2023/06/30 05:31:41;;;;;;;2.10;1.10;;;18.30;52.90;;;;;;5045038;28;20048;-86
2023/06/30 05:34:08;;;;;;;2.25;1.40;;;18.40;53.10;;;;;;5048911;28;20142;-86
2023/06/30 05:36:35;;;;;;;3.03;1.42;;;18.40;53.10;;;;;;5051856;28;20102;-87
2023/06/30 05:39:01;;;;;;;2.42;1.08;;;18.40;53.00;;;;;;5040985;28;20033;-87
2023/06/30 05:41:27;;;;;;;3.40;1.10;;;18.40;53.00;;;;;;5054106;28;20487;-88
2023/06/30 05:43:54;;;;;;;2.75;1.20;;;18.50;53.20;;;;;;5043594;28;20035;-88
2023/06/30 05:46:20;;;;;;;2.47;1.02;;;18.50;53.20;;;;;;5039603;28;20492;-89
2023/06/30 05:48:46;;;;;;;3.38;2.20;;;18.50;53.80;;;;;;5030227;28;20271;-88
2023/06/30 05:51:12;;;;;;;2.88;1.25;;;18.50;53.40;;;;;;5044732;28;20048;-84
2023/06/30 05:53:38;;;;;;;6.55;1.25;;;18.50;54.20;;;;;;5037226;28;20032;-86
2023/06/30 05:56:04;;;;;;;5.32;1.80;;;18.60;55.80;;;;;;5043392;28;20048;-84
2023/06/30 05:58:30;;;;;;;4.05;1.50;;;18.70;56.90;;;;;;5052873;28;20498;-85
2023/06/30 06:00:56;;;;;;;5.60;1.92;;;18.80;57.90;;;;;;5038203;28;20214;-86
2023/06/30 06:03:22;;;;;;;5.63;2.13;;;19.00;59.00;;;;;;5046472;28;20407;-85
2023/06/30 06:05:48;;;;;;;3.63;1.40;;;19.10;59.70;;;;;;5023077;28;20064;-84
2023/06/30 06:08:14;;;;;;;2.80;1.50;;;19.20;60.10;;;;;;5049363;28;20042;-86
2023/06/30 06:10:40;;;;;;;4.60;1.75;;;19.30;60.40;;;;;;5043389;28;20037;-83
2023/06/30 06:13:08;;;;;;;6.20;1.98;;;19.40;60.80;;;;;;5032784;28;20114;-83
2023/06/30 06:15:34;;;;;;;3.78;1.33;;;19.50;61.10;;;;;;5042544;28;20552;-84
2023/06/30 06:18:00;;;;;;;4.43;1.55;;;19.50;61.20;;;;;;5043736;28;20044;-84
2023/06/30 06:20:25;;;;;;;4.68;1.58;;;19.60;61.60;;;;;;5049239;28;20032;-84
2023/06/30 06:22:51;;;;;;;4.25;1.40;;;19.60;61.60;;;;;;5033318;28;20132;-84
2023/06/30 06:25:17;;;;;;;8.60;1.85;;;19.70;61.90;;;;;;5045982;28;20046;-81
2023/06/30 06:27:43;;;;;;;3.88;1.27;;;19.70;62.00;;;;;;5049044;28;20358;-81
2023/06/30 06:30:10;;;;;;;4.68;1.20;;;19.70;62.20;;;;;;5038402;28;20074;-81
2023/06/30 06:32:36;;;;;;;2.95;1.83;;;19.70;62.20;;;;;;5047038;28;20528;-81
2023/06/30 06:35:03;;;;;;;3.47;1.40;;;19.70;62.40;;;;;;5042200;28;20560;-81
2023/06/30 06:37:28;;;;;;;2.65;1.35;;;19.70;62.50;;;;;;5030106;28;20097;-81
2023/06/30 06:39:55;;;;;;;4.45;1.80;;;19.70;62.50;;;;;;5045564;28;20033;-82
2023/06/30 06:42:21;;;;;;;4.60;1.40;;;19.70;62.50;;;;;;5047548;28;20079;-83
2023/06/30 06:44:48;;;;;;;3.05;1.25;;;19.70;62.60;;;;;;5037618;28;20025;-82
2023/06/30 06:47:54;;;;;;;5.60;1.88;;;19.80;62.70;;;;;;5041816;28;20025;-82
2023/06/30 06:50:20;;;;;;;2.25;1.25;;;19.80;62.90;;;;;;5046526;28;20024;-82
2023/06/30 06:52:47;;;;;;;6.38;2.10;;;19.90;62.60;;;;;;5044173;28;20501;-83
2023/06/30 06:55:13;;;;;;;3.05;1.70;;;19.90;62.50;;;;;;5041460;28;20417;-83
2023/06/30 06:58:02;;;;;;;4.55;1.90;;;20.00;62.50;;;;;;4952940;28;20121;-82
2023/06/30 07:00:31;;;;;;;2.92;1.40;;;20.10;62.40;;;;;;4956128;28;20038;-83
2023/06/30 07:02:57;;;;;;;3.38;1.27;;;20.20;62.40;;;;;;5008022;28;20044;-83
2023/06/30 07:05:23;;;;;;;4.82;2.10;;;20.20;62.30;;;;;;5047783;28;20033;-83
2023/06/30 07:07:49;;;;;;;3.67;1.15;;;20.30;62.30;;;;;;5034632;28;20540;-83
2023/06/30 07:10:16;;;;;;;2.50;1.10;;;20.30;62.20;;;;;;5041008;28;20526;-83
2023/06/30 07:12:42;;;;;;;5.00;1.88;;;20.40;62.30;;;;;;5047175;28;20040;-83
2023/06/30 07:15:08;;;;;;;2.25;1.25;;;20.50;62.40;;;;;;5036703;28;20396;-83
2023/06/30 07:17:34;;;;;;;3.28;1.48;;;20.50;62.20;;;;;;5043088;28;20047;-83
2023/06/30 07:20:00;;;;;;;2.22;1.25;;;20.60;62.20;;;;;;5046343;28;20044;-85
2023/06/30 07:22:26;;;;;;;4.82;1.60;;;20.60;62.00;;;;;;5043165;28;20106;-87
2023/06/30 07:24:52;;;;;;;3.65;1.60;;;20.60;61.70;;;;;;5044586;28;20029;-87
2023/06/30 07:27:18;;;;;;;3.83;1.60;;;20.60;61.60;;;;;;5043298;28;20238;-83
2023/06/30 07:29:47;;;;;;;3.10;1.73;;;20.60;61.30;;;;;;5045548;28;20030;-87
2023/06/30 07:32:13;;;;;;;3.53;1.58;;;20.60;61.10;;;;;;5045589;28;20483;-84
2023/06/30 07:34:39;;;;;;;4.20;1.92;;;20.60;61.10;;;;;;5043330;28;20099;-88
2023/06/30 07:37:05;;;;;;;5.30;1.60;;;20.60;60.80;;;;;;5045465;28;20451;-92
2023/06/30 07:39:31;;;;;;;5.00;1.60;;;20.60;60.60;;;;;;5033505;28;20109;-84
2023/06/30 07:41:58;;;;;;;3.58;1.65;;;20.50;60.30;;;;;;5044681;28;20052;-82
2023/06/30 07:44:25;;;;;;;2.85;1.50;;;20.50;60.20;;;;;;5042522;28;20127;-84
2023/06/30 07:46:51;;;;;;;4.05;1.75;;;20.50;60.00;;;;;;5045847;28;20029;-86
2023/06/30 07:49:17;;;;;;;5.65;1.50;;;20.50;59.80;;;;;;5050224;28;20428;-84
2023/06/30 07:51:47;;;;;;;5.65;1.83;;;20.50;60.20;;;;;;5047693;28;20068;-85
2023/06/30 07:54:16;;;;;;;5.28;1.65;;;20.50;59.50;;;;;;5044854;28;20098;-87
2023/06/30 07:56:47;;;;;;;3.92;1.83;;;20.60;59.40;;;;;;5057034;28;20032;-87
2023/06/30 07:59:13;;;;;;;3.88;1.60;;;20.60;59.20;;;;;;5050756;28;20102;-82
2023/06/30 08:01:39;;;;;;;2.72;1.85;;;20.70;59.20;;;;;;5046600;28;20119;-84
2023/06/30 08:04:08;;;;;;;3.90;1.17;;;20.70;59.10;;;;;;5052711;28;20024;-82
2023/06/30 08:06:34;;;;;;;4.60;1.48;;;20.70;58.80;;;;;;5039453;28;20028;-83
2023/06/30 08:09:01;;;;;;;5.57;2.03;;;20.80;58.90;;;;;;5051282;28;20032;-79
2023/06/30 08:11:30;;;;;;;8.50;1.70;;;20.80;58.80;;;;;;5047646;28;20124;-83
2023/06/30 08:13:56;;;;;;;3.55;1.50;;;20.80;58.70;;;;;;5029455;28;20029;-84
2023/06/30 08:16:25;;;;;;;2.60;1.42;;;20.90;58.80;;;;;;5038030;28;20047;-85
2023/06/30 08:18:52;;;;;;;4.80;2.47;;;21.00;58.80;;;;;;5031887;28;20323;-82
2023/06/30 08:21:18;;;;;;;4.03;1.67;;;21.10;58.80;;;;;;5033495;28;20636;-81
2023/06/30 08:23:44;;;;;;;3.08;1.50;;;21.10;58.60;;;;;;5039053;28;20216;-83
2023/06/30 08:26:10;;;;;;;4.50;2.13;;;21.20;58.50;;;;;;5041963;28;20043;-81
2023/06/30 08:28:36;;;;;;;2.28;1.50;;;21.40;58.70;;;;;;5034779;28;20040;-81
2023/06/30 08:31:02;;;;;;;3.53;1.50;;;21.40;58.50;;;;;;5035978;28;20048;-83
2023/06/30 08:33:29;;;;;;;4.30;1.27;;;21.60;58.70;;;;;;5045173;28;20049;-83
2023/06/30 08:35:55;;;;;;;5.82;1.75;;;21.80;58.70;;;;;;5025332;28;20067;-84
2023/06/30 08:38:21;;;;;;;3.55;2.15;;;22.00;58.70;;;;;;5039467;28;20167;-82
2023/06/30 08:40:47;;;;;;;3.85;1.65;;;22.20;58.70;;;;;;5027516;28;20058;-82
2023/06/30 08:43:13;;;;;;;3.30;1.23;;;22.40;58.70;;;;;;5035352;28;20052;-84
2023/06/30 08:45:48;;;;;;;4.65;1.35;;;22.50;58.40;;;;;;5024810;28;20033;-86
2023/06/30 08:48:21;;;;;;;2.90;1.60;;;22.80;58.50;;;;;;5025798;28;20484;-88
2023/06/30 08:50:49;;;;;;;4.20;1.35;;;22.90;58.30;;;;;;5041096;28;20113;-84
2023/06/30 08:53:17;;;;;;;4.63;1.40;;;23.10;58.30;;;;;;5051400;28;20040;-85
2023/06/30 08:55:45;;;;;;;3.20;1.35;;;23.30;58.30;;;;;;5043088;28;20044;-85
2023/06/30 08:58:12;;;;;;;2.75;1.48;;;23.70;58.40;;;;;;5038367;28;20028;-86
2023/06/30 09:00:45;;;;;;;2.00;1.38;;;24.10;58.30;;;;;;5033334;28;20586;-85
2023/06/30 09:03:13;;;;;;;3.63;1.50;;;24.50;58.80;;;;;;5001678;28;20051;-85
2023/06/30 09:05:41;;;;;;;3.30;1.33;;;24.70;58.00;;;;;;5041822;28;20586;-83
2023/06/30 09:08:15;;;;;;;3.60;1.40;;;24.90;57.90;;;;;;5046454;28;20032;-85
2023/06/30 09:10:42;;;;;;;4.60;1.75;;;25.10;57.70;;;;;;5045437;28;20033;-82
2023/06/30 09:13:09;;;;;;;3.97;1.30;;;25.30;57.40;;;;;;5044432;28;20045;-83
2023/06/30 09:15:35;;;;;;;3.30;1.20;;;25.40;57.20;;;;;;5036764;28;21679;-85
2023/06/30 09:18:01;;;;;;;2.58;1.25;;;25.60;56.90;;;;;;5023733;28;20520;-85
2023/06/30 09:20:27;;;;;;;4.90;1.35;;;25.80;56.70;;;;;;5029182;28;20087;-83
2023/06/30 09:22:57;;;;;;;2.17;1.13;;;26.00;56.40;;;;;;5030335;28;20094;-83
2023/06/30 09:25:26;;;;;;;2.53;1.10;;;26.20;56.00;;;;;;5038316;28;20086;-83
2023/06/30 09:27:53;;;;;;;3.17;1.60;;;26.40;55.70;;;;;;5048067;28;20082;-80
2023/06/30 09:30:34;;;;;;;2.17;1.40;;;26.60;55.40;;;;;;5048084;28;20119;-85
2023/06/30 09:33:03;;;;;;;6.47;2.17;;;26.60;55.00;;;;;;5036271;28;20109;-85
2023/06/30 09:35:39;;;;;;;2.47;1.40;;;26.70;55.00;;;;;;5058447;28;20215;-86
2023/06/30 09:38:13;;;;;;;2.35;1.40;;;26.70;54.90;;;;;;5034276;28;20394;-85
2023/06/30 09:40:43;;;;;;;2.17;1.00;;;26.60;54.80;;;;;;5057122;28;20028;-83
2023/06/30 09:43:18;;;;;;;3.53;1.38;;;26.50;54.80;;;;;;5039585;28;20048;-85
2023/06/30 09:46:04;;;;;;;2.80;1.40;;;26.50;54.80;;;;;;5045274;28;20032;-84
2023/06/30 09:48:38;;;;;;;3.47;1.33;;;26.40;54.70;;;;;;5043507;28;20033;-83
2023/06/30 09:51:09;;;;;;;3.28;1.80;;;26.40;55.50;;;;;;5036962;28;20190;-84
2023/06/30 09:53:36;;;;;;;2.25;1.15;;;26.30;54.90;;;;;;5056526;28;20105;-84
2023/06/30 09:56:03;;;;;;;2.67;1.33;;;26.20;54.90;;;;;;5037340;28;20036;-84
2023/06/30 09:58:30;;;;;;;1.52;1.00;;;26.10;55.00;;;;;;5035182;28;20115;-84
2023/06/30 10:00:57;;;;;;;2.20;1.20;;;26.00;55.10;;;;;;5036014;28;20144;-85
2023/06/30 10:03:23;;;;;;;3.00;1.30;;;25.90;55.10;;;;;;5032789;28;20047;-84
2023/06/30 10:05:49;;;;;;;2.63;1.17;;;25.80;55.20;;;;;;5043614;28;20065;-85
2023/06/30 10:08:15;;;;;;;3.05;1.30;;;25.70;55.20;;;;;;5046832;28;20036;-85
2023/06/30 10:10:43;;;;;;;2.47;1.58;;;25.60;55.20;;;;;;5056614;28;20032;-85
2023/06/30 10:13:14;;;;;;;3.30;1.30;;;25.60;55.30;;;;;;5040471;28;20508;-85
2023/06/30 10:15:45;;;;;;;1.60;0.98;;;25.50;55.20;;;;;;5056492;28;20369;-86
2023/06/30 10:18:14;;;;;;;1.98;1.00;;;25.60;55.30;;;;;;5030701;28;20044;-86
2023/06/30 10:20:41;;;;;;;2.47;1.35;;;25.50;55.30;;;;;;5047367;28;20144;-84
2023/06/30 10:23:07;;;;;;;1.00;0.73;;;25.50;55.30;;;;;;5041888;28;20036;-83
2023/06/30 10:25:38;;;;;;;2.10;1.30;;;25.50;55.30;;;;;;5046814;28;20044;-84
2023/06/30 10:28:06;;;;;;;2.15;1.30;;;25.50;55.30;;;;;;5047841;28;20114;-86
2023/06/30 10:30:34;;;;;;;2.20;0.93;;;25.50;55.10;;;;;;5057860;28;20124;-81
2023/06/30 10:33:00;;;;;;;3.83;1.63;;;25.70;55.10;;;;;;5056361;28;20543;-83
2023/06/30 10:35:28;;;;;;;2.47;0.85;;;25.80;54.90;;;;;;5049092;28;20029;-85
2023/06/30 10:38:03;;;;;;;1.35;0.77;;;25.90;54.80;;;;;;5055584;28;20461;-83
2023/06/30 10:40:30;;;;;;;1.55;1.10;;;25.90;54.70;;;;;;5047303;28;20522;-85
2023/06/30 10:42:58;;;;;;;1.85;1.00;;;25.90;54.60;;;;;;5037536;28;20452;-84
2023/06/30 10:45:28;;;;;;;2.13;1.13;;;25.90;54.60;;;;;;5040660;28;20512;-85
2023/06/30 10:48:13;;;;;;;1.50;0.85;;;25.80;54.60;;;;;;5043979;28;20064;-85
2023/06/30 10:50:46;;;;;;;2.83;1.25;;;25.80;54.60;;;;;;5053180;28;20415;-84
2023/06/30 10:53:18;;;;;;;2.03;0.75;;;25.80;54.70;;;;;;5035843;28;20411;-85
2023/06/30 10:55:55;;;;;;;1.25;1.08;;;25.90;54.70;;;;;;5035864;28;20037;-85
2023/06/30 10:58:26;;;;;;;1.38;0.80;;;25.90;54.60;;;;;;5041026;28;20686;-83
2023/06/30 11:01:06;;;;;;;2.15;0.70;;;26.00;54.40;;;;;;5053449;28;20037;-83
2023/06/30 11:03:56;;;;;;;2.08;0.93;;;26.20;54.40;;;;;;5023228;28;20081;-86
2023/06/30 11:06:28;;;;;;;0.98;0.90;;;26.30;54.20;;;;;;5049101;28;20141;-82
2023/06/30 11:09:09;;;;;;;5.45;1.10;;;26.40;54.00;;;;;;5050935;28;20033;-85
2023/06/30 11:11:49;;;;;;;2.50;0.85;;;26.50;53.80;;;;;;5051309;28;20139;-82
2023/06/30 11:14:31;;;;;;;1.52;0.65;;;26.60;53.70;;;;;;5050690;28;20124;-85
2023/06/30 11:17:05;;;;;;;1.88;0.70;;;26.70;53.60;;;;;;5044914;28;20043;-85
2023/06/30 11:19:37;;;;;;;1.45;1.20;;;26.80;53.50;;;;;;5040939;28;20071;-84
2023/06/30 11:22:25;;;;;;;2.95;0.60;;;26.90;53.30;;;;;;5037224;28;20396;-85
2023/06/30 11:24:51;;;;;;;2.95;1.20;;;27.00;53.10;;;;;;5025958;28;20033;-80
2023/06/30 11:27:18;;;;;;;1.10;0.93;;;27.10;53.10;;;;;;5044555;28;20041;-87
2023/06/30 11:29:47;;;;;;;0.73;0.50;;;27.10;52.90;;;;;;5025008;28;20956;-88
2023/06/30 11:32:29;;;;;;;2.72;0.70;;;27.10;52.90;;;;;;5040071;28;20374;-83
2023/06/30 11:35:01;;;;;;;1.65;1.05;;;27.20;52.90;;;;;;5029767;28;20029;-83
2023/06/30 11:37:35;;;;;;;1.15;0.60;;;27.30;52.90;;;;;;5026697;28;20033;-81
2023/06/30 11:40:01;;;;;;;1.33;0.82;;;27.40;52.90;;;;;;5050994;28;20035;-80
2023/06/30 11:42:39;;;;;;;1.38;1.23;;;27.50;52.70;;;;;;5029615;28;20078;-82
2023/06/30 11:45:06;;;;;;;1.33;0.52;;;27.60;52.60;;;;;;5036033;28;20025;-83
2023/06/30 11:47:35;;;;;;;1.45;0.60;;;27.70;52.40;;;;;;5037816;28;20134;-83
2023/06/30 11:50:09;;;;;;;1.30;0.77;;;27.80;52.30;;;;;;5048488;28;20032;-82
2023/06/30 11:52:48;;;;;;;0.53;0.40;;;28.00;52.00;;;;;;5041262;28;20033;-85
2023/06/30 11:55:15;;;;;;;1.60;0.63;;;28.10;51.90;;;;;;5036711;28;20135;-83
2023/06/30 11:57:54;;;;;;;0.95;0.60;;;28.10;51.70;;;;;;5041533;28;20037;-80
2023/06/30 12:00:23;;;;;;;1.00;0.70;;;28.20;51.70;;;;;;5040074;28;20111;-82
2023/06/30 12:03:07;;;;;;;2.28;0.77;;;28.10;51.70;;;;;;5050522;28;20147;-83
2023/06/30 12:05:39;;;;;;;0.90;0.70;;;28.00;51.80;;;;;;5046422;28;20039;-84
2023/06/30 12:08:09;;;;;;;1.05;0.40;;;28.00;51.90;;;;;;5037436;28;20067;-83
2023/06/30 12:10:38;;;;;;;0.80;0.40;;;27.90;52.00;;;;;;5048254;28;20713;-83
2023/06/30 12:13:11;;;;;;;1.55;0.65;;;28.00;52.00;;;;;;5042375;28;20568;-82
2023/06/30 12:15:38;;;;;;;1.98;0.50;;;28.00;51.90;;;;;;5039059;28;20063;-83
2023/06/30 12:18:05;;;;;;;0.80;0.40;;;28.10;51.80;;;;;;5044782;28;20033;-84
2023/06/30 12:20:36;;;;;;;0.93;0.70;;;28.10;51.70;;;;;;5042933;28;20032;-83
2023/06/30 12:23:04;;;;;;;1.45;0.50;;;28.20;51.70;;;;;;5052044;28;20040;-82
2023/06/30 12:25:33;;;;;;;1.17;0.60;;;28.20;51.60;;;;;;5051914;28;20112;-79
2023/06/30 12:28:04;;;;;;;6.25;0.68;;;28.20;51.70;;;;;;5037541;28;20429;-82
2023/06/30 12:30:30;;;;;;;2.10;0.70;;;28.20;51.80;;;;;;5044115;28;20037;-81
2023/06/30 12:32:58;;;;;;;2.05;1.10;;;28.30;51.80;;;;;;5047727;28;20615;-82
2023/06/30 12:35:32;;;;;;;2.40;0.70;;;28.40;51.70;;;;;;5040432;28;20036;-84
2023/06/30 12:37:59;;;;;;;2.75;0.93;;;28.60;51.60;;;;;;5041938;28;20510;-80
2023/06/30 12:40:29;;;;;;;0.75;0.65;;;28.80;51.40;;;;;;5038039;28;20874;-82
2023/06/30 12:42:56;;;;;;;1.27;0.40;;;28.90;51.30;;;;;;5043876;28;20645;-82
2023/06/30 12:45:22;;;;;;;0.70;0.40;;;29.00;51.20;;;;;;5038483;28;20041;-84
2023/06/30 12:47:48;;;;;;;0.50;0.40;;;29.00;51.10;;;;;;5035881;28;20320;-84
2023/06/30 12:50:14;;;;;;;0.90;0.50;;;29.00;51.10;;;;;;5024323;28;20032;-82
2023/06/30 12:52:40;;;;;;;2.75;0.50;;;29.10;51.20;;;;;;5039313;28;20090;-83
2023/06/30 12:55:12;;;;;;;3.05;0.60;;;29.20;51.10;;;;;;5047115;28;20055;-85